createdAt,value
2022-10-13T00:01:43.426Z,13.10
2022-10-13T00:04:11.062Z,14.27
2022-10-13T00:06:38.755Z,13.53
2022-10-13T00:09:06.954Z,12.37
2022-10-13T00:11:34.609Z,13.80
2022-10-13T00:14:04.237Z,13.37
2022-10-13T00:16:33.363Z,12.77
2022-10-13T00:19:02.621Z,12.67
2022-10-13T00:21:30.537Z,13.07
2022-10-13T00:23:58.261Z,14.33
2022-10-13T00:26:27.173Z,13.23
2022-10-13T00:28:55.464Z,13.50
2022-10-13T00:31:24.763Z,13.53
2022-10-13T00:33:52.836Z,12.77
2022-10-13T00:36:22.936Z,12.60
2022-10-13T00:38:51.020Z,13.43
2022-10-13T00:41:19.001Z,13.50
2022-10-13T00:43:57.202Z,12.37
2022-10-13T00:46:26.616Z,13.13
2022-10-13T00:48:56.363Z,13.80
2022-10-13T00:51:29.986Z,12.37
2022-10-13T00:53:59.289Z,13.30
2022-10-13T00:56:28.847Z,13.53
2022-10-13T00:58:57.607Z,14.70
2022-10-13T01:01:26.472Z,13.00
2022-10-13T01:03:54.069Z,13.90
2022-10-13T01:06:23.817Z,13.00
2022-10-13T01:08:54.678Z,13.70
2022-10-13T01:11:33.942Z,14.33
2022-10-13T01:14:12.192Z,13.77
2022-10-13T01:16:56.063Z,13.73
2022-10-13T01:19:50.498Z,14.37
2022-10-13T01:22:31.596Z,14.03
2022-10-13T01:25:10.617Z,13.73
2022-10-13T01:27:50.312Z,13.33
2022-10-13T01:30:21.246Z,13.40
2022-10-13T01:33:15.701Z,13.67
2022-10-13T01:35:56.912Z,14.60
2022-10-13T01:38:35.267Z,14.80
2022-10-13T01:41:10.782Z,14.10
2022-10-13T01:43:44.284Z,14.50
2022-10-13T01:46:16.481Z,15.87
2022-10-13T01:48:46.049Z,15.00
2022-10-13T01:51:21.532Z,15.07
2022-10-13T01:53:50.210Z,14.67
2022-10-13T01:56:18.388Z,14.20
2022-10-13T01:58:48.561Z,14.27
2022-10-13T02:01:31.310Z,14.97
2022-10-13T02:04:10.666Z,13.67
2022-10-13T02:06:43.218Z,14.57
2022-10-13T02:09:16.164Z,15.03
2022-10-13T02:11:50.440Z,15.20
2022-10-13T02:14:21.877Z,14.90
2022-10-13T02:16:52.817Z,16.07
2022-10-13T02:19:21.022Z,14.93
2022-10-13T02:21:49.891Z,13.43
2022-10-13T02:24:17.657Z,15.77
2022-10-13T02:26:46.059Z,14.33
2022-10-13T02:29:15.651Z,15.37
2022-10-13T02:31:44.640Z,14.53
2022-10-13T02:34:14.939Z,14.73
2022-10-13T02:36:43.353Z,15.20
2022-10-13T02:39:12.138Z,14.60
2022-10-13T02:41:40.293Z,14.77
2022-10-13T02:44:08.180Z,15.10
2022-10-13T02:46:35.831Z,16.03
2022-10-13T02:49:03.438Z,15.33
2022-10-13T02:51:35.154Z,14.80
2022-10-13T02:54:05.255Z,15.30
2022-10-13T02:56:32.947Z,14.53
2022-10-13T02:59:00.543Z,13.73
2022-10-13T03:01:28.234Z,15.23
2022-10-13T03:03:55.937Z,14.63
2022-10-13T03:06:23.709Z,14.60
2022-10-13T03:08:52.744Z,14.83
2022-10-13T03:11:20.418Z,15.33
2022-10-13T03:13:48.034Z,15.53
2022-10-13T03:16:15.700Z,14.77
2022-10-13T03:18:43.474Z,15.67
2022-10-13T03:21:11.795Z,16.40
2022-10-13T03:23:39.431Z,14.23
2022-10-13T03:26:08.428Z,15.80
2022-10-13T03:28:36.121Z,14.93
2022-10-13T03:31:04.571Z,15.00
2022-10-13T03:33:32.498Z,15.33
2022-10-13T03:36:01.791Z,14.90
2022-10-13T03:38:30.253Z,15.73
2022-10-13T03:40:57.927Z,15.43
2022-10-13T03:43:26.923Z,16.47
2022-10-13T03:45:58.181Z,15.50
2022-10-13T03:48:25.980Z,15.23
2022-10-13T03:50:53.752Z,14.67
2022-10-13T03:53:22.077Z,16.37
2022-10-13T03:55:50.715Z,15.70
2022-10-13T03:58:18.457Z,15.67
2022-10-13T04:00:47.564Z,15.50
2022-10-13T04:03:15.151Z,14.93
2022-10-13T04:05:42.773Z,15.13
2022-10-13T04:08:10.498Z,14.60
2022-10-13T04:10:38.210Z,16.30
2022-10-13T04:13:06.233Z,15.70
2022-10-13T04:15:37.396Z,15.80
2022-10-13T04:18:08.341Z,15.03
2022-10-13T04:20:38.945Z,15.63
2022-10-13T04:23:06.943Z,14.90
2022-10-13T04:25:36.146Z,16.30
2022-10-13T04:28:03.957Z,16.00
2022-10-13T04:30:31.548Z,15.17
2022-10-13T04:32:59.149Z,16.07
2022-10-13T04:35:28.216Z,17.13
2022-10-13T04:37:57.419Z,15.73
2022-10-13T04:40:25.067Z,15.93
2022-10-13T04:42:52.793Z,15.00
2022-10-13T04:45:20.434Z,15.80
2022-10-13T04:47:48.002Z,15.30
2022-10-13T04:50:15.629Z,15.40
2022-10-13T04:52:44.603Z,14.97
2022-10-13T04:55:12.402Z,15.30
2022-10-13T04:57:40.100Z,15.63
2022-10-13T05:00:09.861Z,15.70
2022-10-13T05:02:39.763Z,14.57
2022-10-13T05:05:08.409Z,16.10
2022-10-13T05:07:36.009Z,15.47
2022-10-13T05:10:05.711Z,15.57
2022-10-13T05:12:33.318Z,14.97
2022-10-13T05:15:00.916Z,16.60
2022-10-13T05:17:35.041Z,16.43
2022-10-13T05:20:03.373Z,16.00
2022-10-13T05:22:30.939Z,16.37
2022-10-13T05:24:58.549Z,16.13
2022-10-13T05:27:27.555Z,16.10
2022-10-13T05:29:55.150Z,16.30
2022-10-13T05:32:22.933Z,15.77
2022-10-13T05:34:50.777Z,15.27
2022-10-13T05:37:18.359Z,16.97
2022-10-13T05:39:48.851Z,15.27
2022-10-13T05:42:17.000Z,16.70
2022-10-13T05:44:46.155Z,17.80
2022-10-13T05:47:13.752Z,17.97
2022-10-13T05:49:41.657Z,17.07
2022-10-13T05:52:11.603Z,16.00
2022-10-13T05:54:43.033Z,18.37
2022-10-13T05:57:17.045Z,18.67
2022-10-13T05:59:50.448Z,18.53
2022-10-13T06:02:20.379Z,18.53
2022-10-13T06:04:52.817Z,18.77
2022-10-13T06:07:20.902Z,19.40
2022-10-13T06:09:49.152Z,20.23
2022-10-13T06:12:16.800Z,19.60
2022-10-13T06:14:45.797Z,21.67
2022-10-13T06:17:13.522Z,21.53
2022-10-13T06:19:41.325Z,21.80
2022-10-13T06:22:08.982Z,21.20
2022-10-13T06:24:36.540Z,20.17
2022-10-13T06:27:04.664Z,21.53
2022-10-13T06:29:33.386Z,19.87
2022-10-13T06:32:02.377Z,18.73
2022-10-13T06:34:29.982Z,19.00
2022-10-13T06:36:58.110Z,21.13
2022-10-13T06:39:26.386Z,19.23
2022-10-13T06:41:55.332Z,18.53
2022-10-13T06:44:22.890Z,18.97
2022-10-13T06:46:50.562Z,19.00
2022-10-13T06:49:19.906Z,17.50
2022-10-13T06:51:47.513Z,17.67
2022-10-13T06:54:15.127Z,18.23
2022-10-13T06:56:43.075Z,15.47
2022-10-13T06:59:10.714Z,17.47
2022-10-13T07:01:41.479Z,16.73
2022-10-13T07:04:09.789Z,16.27
2022-10-13T07:06:38.835Z,15.10
2022-10-13T07:09:07.476Z,14.17
2022-10-13T07:11:35.852Z,14.60
2022-10-13T07:14:03.541Z,14.43
2022-10-13T07:16:31.580Z,16.10
2022-10-13T07:18:59.244Z,16.20
2022-10-13T07:21:26.969Z,14.80
2022-10-13T07:23:56.295Z,15.63
2022-10-13T07:26:23.978Z,14.63
2022-10-13T07:28:51.784Z,14.90
2022-10-13T07:31:21.737Z,14.80
2022-10-13T07:33:51.365Z,14.67
2022-10-13T07:36:19.785Z,15.60
2022-10-13T07:38:47.926Z,14.37
2022-10-13T07:41:16.988Z,14.63
2022-10-13T07:43:44.900Z,15.27
2022-10-13T07:46:14.512Z,14.43
2022-10-13T07:48:42.676Z,15.17
2022-10-13T07:51:13.050Z,15.07
2022-10-13T07:53:43.526Z,14.50
2022-10-13T07:56:13.285Z,15.93
2022-10-13T07:58:44.225Z,16.67
2022-10-13T08:01:11.946Z,16.67
2022-10-13T08:03:42.962Z,17.53
2022-10-13T08:06:13.617Z,18.80
2022-10-13T08:08:41.478Z,19.00
2022-10-13T08:11:14.643Z,17.93
2022-10-13T08:13:48.172Z,17.83
2022-10-13T08:16:15.836Z,18.57
2022-10-13T08:18:43.480Z,18.77
2022-10-13T08:24:02.174Z,16.60
2022-10-13T08:26:30.215Z,17.90
2022-10-13T08:31:47.104Z,18.23
2022-10-13T08:34:14.806Z,18.23
2022-10-13T08:36:43.606Z,17.83
2022-10-13T08:39:11.663Z,19.33
2022-10-13T08:41:43.662Z,18.83
2022-10-13T08:45:02.669Z,18.70
2022-10-13T08:47:16.701Z,18.23
2022-10-13T08:49:46.208Z,18.17
2022-10-13T08:52:19.285Z,19.73
2022-10-13T08:54:47.578Z,19.60
2022-10-13T08:57:15.404Z,19.80
2022-10-13T08:59:44.418Z,21.13
2022-10-13T09:02:14.670Z,18.90
2022-10-13T09:04:46.533Z,20.70
2022-10-13T09:07:19.216Z,20.27
2022-10-13T09:09:51.835Z,21.23
2022-10-13T09:12:22.202Z,21.10
2022-10-13T09:15:01.332Z,21.10
2022-10-13T09:17:29.884Z,22.07
2022-10-13T09:20:03.332Z,21.20
2022-10-13T09:22:32.697Z,19.83
2022-10-13T09:25:20.236Z,20.97
2022-10-13T09:27:50.327Z,19.63
2022-10-13T09:30:34.322Z,20.67
2022-10-13T09:33:23.620Z,19.93
2022-10-13T09:36:11.025Z,19.67
2022-10-13T09:38:39.799Z,19.07
2022-10-13T09:41:18.137Z,18.47
2022-10-13T09:44:01.671Z,19.37
2022-10-13T09:46:33.729Z,20.37
2022-10-13T09:49:04.602Z,18.60
2022-10-13T09:51:37.622Z,20.23
2022-10-13T09:54:07.200Z,19.63
2022-10-13T09:56:40.645Z,18.93
2022-10-13T09:59:25.254Z,17.47
2022-10-13T10:01:57.638Z,17.80
2022-10-13T10:04:34.900Z,19.47
2022-10-13T10:07:10.748Z,20.47
2022-10-13T10:09:44.502Z,18.83
2022-10-13T10:12:17.137Z,19.80
2022-10-13T10:14:45.019Z,19.63
2022-10-13T10:17:22.768Z,20.27
2022-10-13T10:20:00.657Z,19.23
2022-10-13T10:22:38.418Z,20.30
2022-10-13T10:25:20.452Z,18.33
2022-10-13T10:28:06.720Z,18.77
2022-10-13T10:30:40.512Z,19.67
2022-10-13T10:33:14.260Z,19.10
2022-10-13T10:35:48.015Z,20.27
2022-10-13T10:38:26.211Z,22.20
2022-10-13T10:41:02.793Z,20.37
2022-10-13T10:43:47.870Z,20.60
2022-10-13T10:46:18.578Z,21.10
2022-10-13T10:48:50.392Z,23.33
2022-10-13T10:51:19.745Z,21.17
2022-10-13T10:53:57.374Z,22.40
2022-10-13T10:56:33.525Z,20.37
2022-10-13T10:59:27.750Z,22.10
2022-10-13T11:02:10.147Z,20.70
2022-10-13T11:04:44.717Z,23.67
2022-10-13T11:07:14.997Z,22.80
2022-10-13T11:10:02.567Z,22.73
2022-10-13T11:13:02.586Z,24.00
2022-10-13T11:15:33.586Z,23.60
2022-10-13T11:18:01.229Z,22.10
2022-10-13T11:20:59.229Z,20.90
2022-10-13T11:23:35.721Z,20.73
2022-10-13T11:26:36.969Z,21.73
2022-10-13T11:29:04.607Z,22.63
2022-10-13T11:31:49.143Z,22.37
2022-10-13T11:34:31.463Z,23.97
2022-10-13T11:37:03.010Z,24.60
2022-10-13T11:39:50.661Z,24.50
2022-10-13T11:42:33.273Z,24.67
2022-10-13T11:45:03.132Z,26.37
2022-10-13T11:50:50.423Z,30.13
2022-10-13T11:53:23.822Z,34.33
2022-10-13T11:55:53.493Z,37.50
2022-10-13T11:58:23.229Z,37.60
2022-10-13T12:00:55.983Z,37.23
2022-10-13T12:03:27.259Z,36.30
2022-10-13T12:05:59.067Z,30.90
2022-10-13T12:08:29.545Z,28.77
2022-10-13T12:11:00.024Z,27.10
2022-10-13T12:13:30.072Z,26.80
2022-10-13T12:16:01.032Z,22.23
2022-10-13T12:18:33.815Z,22.90
2022-10-13T12:21:04.323Z,23.80
2022-10-13T12:23:34.115Z,21.43
2022-10-13T12:26:02.160Z,18.73
2022-10-13T12:28:32.382Z,22.10
2022-10-13T12:31:01.158Z,22.27
2022-10-13T12:33:31.446Z,24.30
2022-10-13T12:36:13.033Z,23.97
2022-10-13T12:38:47.897Z,23.53
2022-10-13T12:41:21.796Z,23.67
2022-10-13T12:43:51.022Z,22.83
2022-10-13T12:46:36.677Z,24.03
2022-10-13T12:49:08.030Z,24.57
2022-10-13T12:51:38.045Z,23.03
2022-10-13T12:54:19.518Z,23.03
2022-10-13T12:56:50.210Z,21.33
2022-10-13T12:59:21.222Z,22.57
2022-10-13T13:01:55.037Z,22.23
2022-10-13T13:04:46.583Z,22.53
2022-10-13T13:07:29.530Z,21.30
2022-10-13T13:10:16.061Z,22.00
2022-10-13T13:12:44.504Z,18.40
2022-10-13T13:15:20.822Z,20.60
2022-10-13T13:18:04.066Z,21.70
2022-10-13T13:20:34.689Z,21.38
2022-10-13T13:23:02.440Z,25.45
2022-10-13T13:25:31.477Z,22.63
2022-10-13T13:27:59.103Z,22.63
2022-10-13T13:30:27.685Z,22.47
2022-10-13T13:32:55.230Z,22.40
2022-10-13T13:35:22.803Z,21.87
2022-10-13T13:37:53.026Z,22.93
2022-10-13T13:40:23.464Z,23.43
2022-10-13T13:42:52.854Z,22.67
2022-10-13T13:45:25.363Z,21.90
2022-10-13T13:47:55.760Z,22.80
2022-10-13T13:50:27.444Z,23.87
2022-10-13T13:52:55.278Z,21.80
2022-10-13T13:55:23.413Z,20.87
2022-10-13T13:57:52.718Z,21.27
2022-10-13T14:00:20.500Z,21.83
2022-10-13T14:02:48.257Z,21.73
2022-10-13T14:05:16.142Z,22.70
2022-10-13T14:07:43.875Z,22.53
2022-10-13T14:10:12.003Z,23.30
2022-10-13T14:12:39.606Z,20.53
2022-10-13T14:15:10.118Z,20.07
2022-10-13T14:17:37.822Z,22.63
2022-10-13T14:20:06.589Z,24.00
2022-10-13T14:22:34.656Z,20.67
2022-10-13T14:25:02.275Z,21.30
2022-10-13T14:27:30.774Z,20.60
2022-10-13T14:29:58.469Z,22.53
2022-10-13T14:32:27.740Z,21.90
2022-10-13T14:34:55.358Z,20.27
2022-10-13T14:37:23.602Z,21.80
2022-10-13T14:39:52.696Z,21.87
2022-10-13T14:42:20.331Z,22.00
2022-10-13T14:44:48.248Z,22.27
2022-10-13T14:47:15.878Z,23.00
2022-10-13T14:49:44.811Z,23.47
2022-10-13T14:52:12.464Z,22.80
2022-10-13T14:54:44.696Z,21.47
2022-10-13T14:57:15.818Z,23.40
2022-10-13T14:59:43.683Z,23.17
2022-10-13T15:02:11.593Z,23.10
2022-10-13T15:04:39.316Z,24.17
2022-10-13T15:07:09.373Z,25.10
2022-10-13T15:09:53.086Z,24.57
2022-10-13T15:12:24.848Z,22.87
2022-10-13T15:14:52.455Z,24.73
2022-10-13T15:17:20.075Z,24.57
2022-10-13T15:19:47.754Z,25.10
2022-10-13T15:22:16.725Z,24.87
2022-10-13T15:24:45.547Z,24.53
2022-10-13T15:27:13.178Z,25.47
2022-10-13T15:29:40.743Z,25.83
2022-10-13T15:32:09.925Z,25.50
2022-10-13T15:34:39.624Z,26.23
2022-10-13T15:37:07.530Z,22.87
2022-10-13T15:39:36.587Z,24.50
2022-10-13T15:42:05.118Z,25.00
2022-10-13T15:44:57.496Z,19.67
2022-10-13T15:47:20.780Z,20.30
2022-10-13T15:49:48.403Z,18.00
2022-10-13T15:52:16.100Z,18.27
2022-10-13T15:54:45.199Z,19.87
2022-10-13T15:57:12.836Z,20.23
2022-10-13T15:59:40.563Z,19.20
2022-10-13T16:02:08.507Z,25.17
2022-10-13T16:04:37.649Z,24.87
2022-10-13T16:07:05.475Z,24.37
2022-10-13T16:09:33.090Z,26.67
2022-10-13T16:12:02.018Z,33.07
2022-10-13T16:14:29.708Z,28.07
2022-10-13T16:17:00.111Z,26.43
2022-10-13T16:19:27.762Z,24.87
2022-10-13T16:21:55.414Z,24.07
2022-10-13T16:24:23.264Z,20.27
2022-10-13T16:26:50.889Z,21.47
2022-10-13T16:29:19.931Z,25.33
2022-10-13T16:31:47.621Z,25.77
2022-10-13T16:34:16.048Z,28.27
2022-10-13T16:36:43.666Z,23.43
2022-10-13T16:39:11.400Z,28.23
2022-10-13T16:41:39.042Z,28.73
2022-10-13T16:44:07.082Z,30.37
2022-10-13T16:46:36.222Z,31.87
2022-10-13T16:49:03.915Z,34.37
2022-10-13T16:51:31.551Z,31.60
2022-10-13T16:54:04.122Z,29.03
2022-10-13T16:56:32.015Z,28.73
2022-10-13T16:59:01.451Z,30.60
2022-10-13T17:01:30.378Z,27.80
2022-10-13T17:03:59.897Z,26.50
2022-10-13T17:06:29.274Z,28.37
2022-10-13T17:08:58.306Z,29.60
2022-10-13T17:11:28.799Z,27.23
2022-10-13T17:13:57.975Z,29.90
2022-10-13T17:16:26.130Z,26.33
2022-10-13T17:18:53.755Z,25.30
2022-10-13T17:21:22.964Z,28.90
2022-10-13T17:23:51.004Z,30.00
2022-10-13T17:26:19.547Z,27.20
2022-10-13T17:28:47.278Z,32.23
2022-10-13T17:31:16.637Z,34.43
2022-10-13T17:33:45.182Z,28.03
2022-10-13T17:36:15.210Z,30.83
2022-10-13T17:38:44.838Z,30.43
2022-10-13T17:41:13.150Z,31.37
2022-10-13T17:43:41.619Z,30.03
2022-10-13T17:46:35.074Z,29.67
2022-10-13T17:49:01.093Z,29.37
2022-10-13T17:51:29.046Z,27.07
2022-10-13T17:54:00.593Z,27.87
2022-10-13T17:56:29.328Z,29.87
2022-10-13T17:58:57.076Z,33.03
2022-10-13T18:01:26.488Z,29.73
2022-10-13T18:03:56.503Z,29.33
2022-10-13T18:06:24.354Z,30.53
2022-10-13T18:08:52.526Z,32.07
2022-10-13T18:11:23.263Z,28.27
2022-10-13T18:13:51.587Z,27.10
2022-10-13T18:16:21.934Z,29.33
2022-10-13T18:18:51.237Z,29.77
2022-10-13T18:21:22.351Z,28.27
2022-10-13T18:23:50.024Z,26.80
2022-10-13T18:26:19.439Z,26.23
2022-10-13T18:28:50.201Z,26.43
2022-10-13T18:31:19.922Z,26.57
2022-10-13T18:33:47.911Z,26.57
2022-10-13T18:36:19.882Z,26.93
2022-10-13T18:38:47.701Z,24.57
2022-10-13T18:41:16.250Z,23.97
2022-10-13T18:43:43.893Z,24.73
2022-10-13T18:46:13.208Z,24.93
2022-10-13T18:48:41.134Z,25.03
2022-10-13T18:51:10.347Z,24.83
2022-10-13T18:53:39.246Z,24.97
2022-10-13T18:56:09.057Z,24.43
2022-10-13T18:58:37.009Z,24.87
2022-10-13T19:01:08.918Z,24.73
2022-10-13T19:03:39.662Z,26.27
2022-10-13T19:06:08.850Z,23.97
2022-10-13T19:08:36.763Z,24.93
2022-10-13T19:11:11.955Z,22.10
2022-10-13T19:13:39.672Z,25.93
2022-10-13T19:16:07.779Z,25.93
2022-10-13T19:18:35.924Z,21.47
2022-10-13T19:21:05.426Z,22.27
2022-10-13T19:23:33.088Z,22.80
2022-10-13T19:26:00.924Z,22.27
2022-10-13T19:28:28.666Z,19.77
2022-10-13T19:30:56.251Z,22.90
2022-10-13T19:33:23.945Z,20.97
2022-10-13T19:35:52.774Z,20.90
2022-10-13T19:38:21.723Z,21.50
2022-10-13T19:40:51.184Z,21.07
2022-10-13T19:43:19.215Z,19.20
2022-10-13T19:45:57.398Z,20.73
2022-10-13T19:48:27.851Z,20.37
2022-10-13T19:50:55.454Z,18.00
2022-10-13T19:53:24.438Z,18.70
2022-10-13T19:55:52.068Z,20.00
2022-10-13T19:58:20.486Z,20.53
2022-10-13T20:00:49.758Z,20.03
2022-10-13T20:03:17.663Z,20.37
2022-10-13T20:05:45.339Z,21.50
2022-10-13T20:08:13.833Z,21.57
2022-10-13T20:10:44.621Z,21.53
2022-10-13T20:13:12.393Z,21.00
2022-10-13T20:15:40.870Z,21.60
2022-10-13T20:18:09.978Z,21.47
2022-10-13T20:20:38.036Z,20.67
2022-10-13T20:23:05.765Z,20.67
2022-10-13T20:25:36.661Z,20.53
2022-10-13T20:28:06.303Z,19.53
2022-10-13T20:30:34.433Z,19.37
2022-10-13T20:33:02.161Z,18.23
2022-10-13T20:35:30.832Z,20.80
2022-10-13T20:37:58.526Z,19.90
2022-10-13T20:40:26.199Z,19.03
2022-10-13T20:42:53.913Z,20.03
2022-10-13T20:45:22.913Z,19.83
2022-10-13T20:47:50.551Z,19.40
2022-10-13T20:50:18.317Z,19.83
2022-10-13T20:52:45.893Z,18.90
2022-10-13T20:55:13.507Z,18.80
2022-10-13T20:57:41.096Z,19.83
2022-10-13T21:00:10.222Z,19.03
2022-10-13T21:02:39.209Z,18.43
2022-10-13T21:05:07.167Z,19.43
2022-10-13T21:07:34.785Z,20.37
2022-10-13T21:10:02.464Z,19.83
2022-10-13T21:12:30.064Z,18.33
2022-10-13T21:14:58.164Z,19.63
2022-10-13T21:17:25.737Z,20.93
2022-10-13T21:19:55.473Z,19.43
2022-10-13T21:22:23.089Z,20.20
2022-10-13T21:24:50.721Z,19.73
2022-10-13T21:27:18.717Z,19.80
2022-10-13T21:29:46.462Z,20.40
2022-10-13T21:32:14.055Z,19.80
2022-10-13T21:34:41.719Z,20.43
2022-10-13T21:37:10.662Z,19.50
2022-10-13T21:39:38.495Z,19.13
2022-10-13T21:42:06.328Z,18.33
2022-10-13T21:44:33.899Z,19.57
2022-10-13T21:47:01.526Z,18.13
2022-10-13T21:49:29.155Z,17.23
2022-10-13T21:51:56.745Z,18.53
2022-10-13T21:54:25.713Z,19.20
2022-10-13T21:56:53.339Z,20.07
2022-10-13T21:59:20.934Z,19.30
2022-10-13T22:01:48.535Z,18.90
2022-10-13T22:04:16.265Z,18.00
2022-10-13T22:06:44.476Z,17.60
2022-10-13T22:09:12.137Z,18.80
2022-10-13T22:11:42.447Z,17.67
2022-10-13T22:14:10.050Z,19.10
2022-10-13T22:16:39.953Z,20.30
2022-10-13T22:19:07.921Z,20.93
2022-10-13T22:21:38.169Z,18.97
2022-10-13T22:24:08.181Z,17.63
2022-10-13T22:26:38.345Z,18.30
2022-10-13T22:29:07.833Z,18.17
2022-10-13T22:31:36.517Z,18.67
2022-10-13T22:34:05.080Z,18.53
2022-10-13T22:36:32.806Z,20.33
2022-10-13T22:39:02.947Z,19.33
2022-10-13T22:41:32.056Z,19.33
2022-10-13T22:44:00.443Z,18.17
2022-10-13T22:46:31.570Z,18.90
2022-10-13T22:49:00.115Z,17.97
2022-10-13T22:51:29.669Z,16.80
2022-10-13T22:53:58.338Z,16.30
2022-10-13T22:56:28.504Z,16.80
2022-10-13T22:58:58.521Z,16.60
2022-10-13T23:01:27.159Z,16.27
2022-10-13T23:03:58.807Z,15.70
2022-10-13T23:06:29.166Z,14.23
2022-10-13T23:08:57.240Z,15.33
2022-10-13T23:11:24.927Z,15.37
2022-10-13T23:13:52.590Z,16.10
2022-10-13T23:16:23.058Z,15.67
2022-10-13T23:18:51.135Z,15.93
2022-10-13T23:21:21.963Z,14.63
2022-10-13T23:23:55.108Z,15.37
2022-10-13T23:26:22.885Z,14.53
2022-10-13T23:28:50.618Z,15.87
2022-10-13T23:31:18.799Z,14.80
2022-10-13T23:33:46.436Z,15.40
2022-10-13T23:36:17.140Z,15.27
2022-10-13T23:38:46.274Z,15.20
2022-10-13T23:41:16.133Z,14.77
2022-10-13T23:43:44.639Z,15.63
2022-10-13T23:46:12.695Z,15.23
2022-10-13T23:48:41.092Z,13.70
2022-10-13T23:51:10.933Z,14.57
2022-10-13T23:53:39.663Z,16.03
2022-10-13T23:56:10.171Z,14.83
2022-10-13T23:58:38.983Z,15.43
